Time;durP1;ratioP1;P1;durP2;ratioP2;P2;SDS_P1;SDS_P2;PMS_P1;PMS_P2;Temp;Humidity;BMP_temperature;BMP_pressure;BME280_temperature;BME280_humidity;BME280_pressure;Samples;Min_cycle;Max_cycle;Signal;HPM_P1;HPM_P2
2021/06/03 00:00:57;;;;;;;3.05;0.70;;;17.10;41.60;;;;;;4345352;32;20094;-32
2021/06/03 00:03:24;;;;;;;3.30;0.90;;;17.10;41.70;;;;;;4359103;32;20583;-32
2021/06/03 00:05:53;;;;;;;1.58;0.90;;;17.00;41.80;;;;;;4345648;32;20070;-33
2021/06/03 00:08:22;;;;;;;1.15;0.57;;;17.10;41.80;;;;;;4358670;32;20070;-34
2021/06/03 00:11:09;;;;;;;3.10;0.70;;;17.10;41.90;;;;;;4332682;32;20104;-33
2021/06/03 00:13:37;;;;;;;3.80;0.70;;;17.00;41.90;;;;;;4358671;32;20070;-33
2021/06/03 00:16:10;;;;;;;1.87;1.05;;;17.10;41.90;;;;;;4311548;33;20076;-34
2021/06/03 00:18:38;;;;;;;2.53;0.82;;;17.10;42.00;;;;;;4311530;33;20079;-33
2021/06/03 00:21:07;;;;;;;2.53;0.50;;;17.10;41.90;;;;;;4311726;33;20102;-33
2021/06/03 00:23:34;;;;;;;1.75;0.57;;;17.20;42.00;;;;;;4312524;33;20059;-32
2021/06/03 00:26:00;;;;;;;3.45;0.60;;;17.20;41.90;;;;;;4312151;33;20080;-33
2021/06/03 00:28:27;;;;;;;2.30;0.77;;;17.30;41.80;;;;;;4297205;33;20076;-35
2021/06/03 00:30:54;;;;;;;2.03;0.90;;;17.30;41.60;;;;;;4297279;33;20083;-34
2021/06/03 00:33:20;;;;;;;2.37;0.65;;;17.20;41.70;;;;;;4284733;33;20071;-34
2021/06/03 00:35:47;;;;;;;1.35;0.65;;;17.30;41.90;;;;;;4296538;33;20060;-33
2021/06/03 00:38:13;;;;;;;2.80;0.90;;;17.30;41.80;;;;;;4296413;33;20100;-33
2021/06/03 00:40:40;;;;;;;1.67;0.80;;;17.20;41.90;;;;;;4296898;33;20067;-35
2021/06/03 00:43:06;;;;;;;3.37;0.93;;;17.30;42.00;;;;;;4297242;33;20072;-33
2021/06/03 00:45:36;;;;;;;1.55;0.80;;;17.30;41.90;;;;;;4285650;33;20060;-33
2021/06/03 00:48:05;;;;;;;1.05;0.60;;;17.20;41.90;;;;;;4310479;33;20102;-32
2021/06/03 00:50:52;;;;;;;2.15;0.75;;;17.30;42.00;;;;;;4312081;33;20244;-33
2021/06/03 00:53:18;;;;;;;1.98;0.90;;;17.30;41.90;;;;;;4312260;33;20087;-33
2021/06/03 00:55:54;;;;;;;1.83;0.82;;;17.40;42.00;;;;;;4311836;33;20087;-34
2021/06/03 00:58:20;;;;;;;1.20;0.70;;;17.50;41.90;;;;;;4311464;33;20532;-33
2021/06/03 01:00:48;;;;;;;1.58;0.75;;;17.40;41.90;;;;;;4311871;33;20070;-35
2021/06/03 01:03:15;;;;;;;5.80;1.00;;;17.50;41.80;;;;;;4311500;33;20079;-33
2021/06/03 01:05:48;;;;;;;1.02;0.50;;;17.50;41.70;;;;;;4311714;33;20472;-34
2021/06/03 01:08:21;;;;;;;1.15;0.70;;;17.50;41.90;;;;;;4311903;33;20151;-33
2021/06/03 01:11:07;;;;;;;1.10;0.80;;;17.60;41.80;;;;;;4311703;33;20078;-32
2021/06/03 01:14:12;;;;;;;3.45;0.75;;;17.70;41.70;;;;;;4311164;33;20080;-33
2021/06/03 01:16:39;;;;;;;2.87;0.88;;;17.70;41.60;;;;;;4294411;33;20099;-33
2021/06/03 01:19:11;;;;;;;2.72;1.27;;;17.90;41.40;;;;;;4284685;33;20095;-33
2021/06/03 01:22:02;;;;;;;1.75;0.60;;;17.90;41.20;;;;;;4296620;33;20087;-33
2021/06/03 01:24:29;;;;;;;2.47;0.80;;;17.90;41.20;;;;;;4297093;33;20087;-33
2021/06/03 01:27:25;;;;;;;6.37;1.00;;;17.90;41.10;;;;;;4296783;33;20064;-34
2021/06/03 01:29:54;;;;;;;1.65;0.98;;;18.00;41.20;;;;;;4297120;33;20118;-33
2021/06/03 01:32:21;;;;;;;4.62;1.52;;;18.00;41.10;;;;;;4314112;33;20092;-33
2021/06/03 01:34:48;;;;;;;5.87;0.90;;;18.00;41.00;;;;;;4314412;33;20562;-33
2021/06/03 01:37:14;;;;;;;3.75;1.10;;;18.00;41.20;;;;;;4314255;33;20185;-33
2021/06/03 01:39:43;;;;;;;2.10;0.93;;;18.10;41.10;;;;;;4313962;33;20083;-33
2021/06/03 01:42:10;;;;;;;3.15;1.12;;;18.00;41.10;;;;;;4314053;33;20067;-33
2021/06/03 01:44:37;;;;;;;1.62;1.08;;;18.00;42.00;;;;;;4313844;33;20521;-33
2021/06/03 01:47:04;;;;;;;1.40;1.10;;;18.00;41.10;;;;;;4317871;33;20078;-33
2021/06/03 01:49:31;;;;;;;2.05;0.90;;;18.00;41.20;;;;;;4329263;33;20600;-33
2021/06/03 01:52:03;;;;;;;2.00;1.10;;;18.00;41.10;;;;;;4328845;33;20510;-33
2021/06/03 01:54:29;;;;;;;2.97;1.10;;;18.00;41.10;;;;;;4328652;33;20063;-33
2021/06/03 01:56:56;;;;;;;2.75;1.27;;;18.10;41.10;;;;;;4328213;33;20091;-34
2021/06/03 01:59:22;;;;;;;2.10;1.37;;;18.30;40.80;;;;;;4337815;33;20172;-34
2021/06/03 02:01:49;;;;;;;4.12;1.27;;;18.30;40.60;;;;;;4343788;33;20055;-37
2021/06/03 02:04:16;;;;;;;1.48;0.77;;;18.30;40.50;;;;;;4343715;33;20071;-33
2021/06/03 02:06:43;;;;;;;4.10;1.25;;;18.40;40.50;;;;;;4345186;33;20058;-35
2021/06/03 02:09:11;;;;;;;3.03;1.10;;;18.60;40.20;;;;;;4345429;32;20070;-32
2021/06/03 02:11:45;;;;;;;1.98;0.90;;;18.80;40.00;;;;;;4343688;33;20545;-33
2021/06/03 02:14:16;;;;;;;3.35;0.90;;;18.80;39.60;;;;;;4343923;33;20075;-33
2021/06/03 02:17:03;;;;;;;3.33;0.65;;;18.90;39.50;;;;;;4345037;32;20071;-33
2021/06/03 02:20:11;;;;;;;4.32;0.68;;;19.10;39.50;;;;;;4343538;33;20066;-33
2021/06/03 02:22:38;;;;;;;1.55;0.80;;;19.10;39.20;;;;;;4344693;33;20155;-34
2021/06/03 02:25:06;;;;;;;4.45;1.05;;;19.30;39.20;;;;;;4290033;33;20080;-35
2021/06/03 02:27:33;;;;;;;0.93;0.70;;;19.30;39.00;;;;;;4314220;33;20157;-34
2021/06/03 02:29:59;;;;;;;4.30;0.95;;;19.40;39.00;;;;;;4314378;33;20119;-34
2021/06/03 02:32:28;;;;;;;1.50;0.82;;;19.50;38.70;;;;;;4313868;33;20068;-35
2021/06/03 02:34:55;;;;;;;3.33;1.17;;;19.60;38.40;;;;;;4313893;33;20095;-34
2021/06/03 02:37:22;;;;;;;1.90;0.90;;;19.60;39.30;;;;;;4325875;33;20504;-35
2021/06/03 02:39:49;;;;;;;2.75;0.90;;;19.60;38.50;;;;;;4314870;33;20089;-34
2021/06/03 02:42:16;;;;;;;1.55;1.05;;;19.60;38.50;;;;;;4297999;33;20158;-34
2021/06/03 02:44:43;;;;;;;1.23;0.80;;;19.80;38.40;;;;;;4298513;33;20162;-34
2021/06/03 02:47:10;;;;;;;3.90;0.95;;;19.80;38.20;;;;;;4297685;33;20155;-34
2021/06/03 02:49:36;;;;;;;1.42;0.80;;;19.90;38.10;;;;;;4298115;33;20508;-34
2021/06/03 02:52:06;;;;;;;3.80;0.70;;;19.90;37.90;;;;;;4298164;33;20086;-35
2021/06/03 02:54:33;;;;;;;3.40;0.60;;;19.80;38.40;;;;;;4298303;33;20076;-34
2021/06/03 02:56:59;;;;;;;3.92;1.00;;;20.00;38.30;;;;;;4297711;33;20131;-34
2021/06/03 02:59:27;;;;;;;3.92;1.48;;;20.10;38.00;;;;;;4286178;33;20102;-35
2021/06/03 03:01:54;;;;;;;3.37;0.90;;;20.10;38.00;;;;;;4298102;33;20091;-34
2021/06/03 03:04:20;;;;;;;4.10;1.12;;;20.10;38.00;;;;;;4286332;33;20150;-35
2021/06/03 03:06:47;;;;;;;4.93;1.05;;;20.10;37.80;;;;;;4297602;33;20076;-34
2021/06/03 03:09:13;;;;;;;2.75;1.20;;;20.10;37.90;;;;;;4297459;33;20143;-34
2021/06/03 03:11:40;;;;;;;1.95;1.33;;;20.10;37.90;;;;;;4297490;33;20091;-34
2021/06/03 03:14:06;;;;;;;3.35;0.90;;;20.20;38.00;;;;;;4311941;33;20076;-36
2021/06/03 03:16:33;;;;;;;2.10;1.33;;;20.30;37.90;;;;;;4314868;33;20125;-35
2021/06/03 03:18:59;;;;;;;4.37;1.98;;;20.20;37.80;;;;;;4314845;33;20059;-34
2021/06/03 03:21:25;;;;;;;1.92;0.80;;;20.30;37.80;;;;;;4314404;33;20491;-35
2021/06/03 03:23:52;;;;;;;6.18;1.05;;;20.30;37.80;;;;;;4329256;33;20054;-34
2021/06/03 03:26:18;;;;;;;2.87;1.17;;;20.30;37.70;;;;;;4343404;32;20684;-35
2021/06/03 03:28:46;;;;;;;3.75;1.48;;;20.20;37.60;;;;;;4342401;33;20088;-35
2021/06/03 03:31:13;;;;;;;1.70;0.65;;;20.20;37.90;;;;;;4350960;32;20054;-38
2021/06/03 03:33:39;;;;;;;2.70;1.60;;;20.30;38.00;;;;;;4359155;32;20070;-36
2021/06/03 03:36:06;;;;;;;3.40;0.85;;;20.40;37.60;;;;;;4344824;32;20071;-35
2021/06/03 03:38:33;;;;;;;6.00;1.30;;;20.40;37.60;;;;;;4359207;32;20145;-34
2021/06/03 03:40:59;;;;;;;3.05;1.35;;;20.40;37.60;;;;;;4358624;32;20221;-34
2021/06/03 03:43:26;;;;;;;8.00;1.55;;;20.40;37.40;;;;;;4358118;32;20070;-35
2021/06/03 03:45:52;;;;;;;6.62;1.48;;;20.30;37.40;;;;;;4358277;32;20518;-35
2021/06/03 03:48:19;;;;;;;6.93;1.42;;;20.40;37.40;;;;;;4358312;32;20062;-35
2021/06/03 03:50:46;;;;;;;2.35;0.80;;;20.40;37.50;;;;;;4358095;32;20124;-35
2021/06/03 03:53:12;;;;;;;2.15;1.02;;;20.50;37.40;;;;;;4344047;32;20522;-36
2021/06/03 03:55:39;;;;;;;5.57;1.00;;;20.60;37.50;;;;;;4358680;32;20063;-43
2021/06/03 03:58:05;;;;;;;3.08;1.30;;;20.50;37.40;;;;;;4344416;32;20058;-36
2021/06/03 04:00:33;;;;;;;1.80;0.80;;;20.50;37.30;;;;;;4313429;33;20081;-35
2021/06/03 04:03:00;;;;;;;4.05;0.80;;;20.70;37.50;;;;;;4325693;33;20111;-35
2021/06/03 04:05:27;;;;;;;1.55;0.90;;;20.90;37.20;;;;;;4325890;33;20185;-36
2021/06/03 04:07:53;;;;;;;2.35;1.00;;;21.20;36.80;;;;;;4325966;33;20075;-36
2021/06/03 04:10:21;;;;;;;1.15;0.88;;;21.20;36.60;;;;;;4326152;33;20071;-36
2021/06/03 04:12:48;;;;;;;1.83;0.80;;;21.20;36.60;;;;;;4326054;33;20456;-36
2021/06/03 04:15:15;;;;;;;3.90;0.57;;;21.20;36.30;;;;;;4326317;33;20067;-35
2021/06/03 04:17:42;;;;;;;1.85;0.93;;;21.40;36.50;;;;;;4326059;33;20511;-36
2021/06/03 04:20:15;;;;;;;3.15;0.90;;;21.50;36.20;;;;;;4326448;33;20166;-36
2021/06/03 04:22:42;;;;;;;2.15;1.20;;;21.50;36.00;;;;;;4325202;33;20079;-35
2021/06/03 04:25:09;;;;;;;1.00;0.65;;;21.60;35.60;;;;;;4311263;33;20560;-35
2021/06/03 04:27:36;;;;;;;1.92;0.90;;;21.70;36.00;;;;;;4311306;33;20142;-36
2021/06/03 04:30:08;;;;;;;5.00;1.20;;;21.70;35.70;;;;;;4299330;33;20152;-36
2021/06/03 04:32:35;;;;;;;8.70;1.77;;;21.70;35.40;;;;;;4310535;33;20091;-37
2021/06/03 04:35:03;;;;;;;3.00;1.02;;;21.70;35.50;;;;;;4311027;33;20099;-35
2021/06/03 04:37:30;;;;;;;8.65;1.10;;;21.80;35.60;;;;;;4321508;33;20061;-37
2021/06/03 04:39:56;;;;;;;2.28;1.00;;;22.00;35.20;;;;;;4343904;33;20066;-36
2021/06/03 04:42:25;;;;;;;3.62;1.05;;;22.00;35.00;;;;;;4329806;33;20075;-36
2021/06/03 04:44:51;;;;;;;1.92;1.00;;;22.20;34.90;;;;;;4342917;33;20154;-36
2021/06/03 04:47:18;;;;;;;10.43;1.30;;;22.30;34.60;;;;;;4342705;32;20486;-37
2021/06/03 04:49:44;;;;;;;6.95;1.30;;;22.40;34.10;;;;;;4342733;33;20062;-36
2021/06/03 04:52:26;;;;;;;9.05;1.23;;;22.00;34.10;;;;;;4342927;32;20078;-36
2021/06/03 04:55:06;;;;;;;5.03;1.30;;;22.10;34.60;;;;;;4342673;32;20063;-37
2021/06/03 04:57:33;;;;;;;0.93;0.60;;;22.20;34.10;;;;;;4329039;33;20166;-36
2021/06/03 04:59:59;;;;;;;3.58;0.70;;;22.20;34.10;;;;;;4342757;33;20102;-36
2021/06/03 05:02:26;;;;;;;3.78;1.25;;;22.30;33.80;;;;;;4342564;32;20243;-37
2021/06/03 05:04:53;;;;;;;1.37;0.70;;;22.30;33.60;;;;;;4332039;33;20054;-36
2021/06/03 05:07:20;;;;;;;0.80;0.60;;;22.40;33.90;;;;;;4345327;32;20160;-35
2021/06/03 05:09:47;;;;;;;4.80;1.30;;;22.50;33.40;;;;;;4345676;32;20082;-34
2021/06/03 05:12:14;;;;;;;12.77;1.10;;;22.40;32.90;;;;;;4345732;33;20066;-37
2021/06/03 05:14:40;;;;;;;1.83;0.60;;;22.40;33.10;;;;;;4345621;32;20082;-37
2021/06/03 05:17:07;;;;;;;4.05;1.10;;;22.60;33.80;;;;;;4345546;32;20101;-37
2021/06/03 05:19:34;;;;;;;3.95;0.80;;;22.60;32.70;;;;;;4345484;32;20149;-38
2021/06/03 05:22:01;;;;;;;2.12;0.95;;;22.80;32.40;;;;;;4345704;32;20152;-37
2021/06/03 05:24:27;;;;;;;4.55;1.10;;;23.10;32.30;;;;;;4342599;32;20463;-36
2021/06/03 05:26:54;;;;;;;1.25;0.50;;;23.20;31.20;;;;;;4346482;32;20062;-36
2021/06/03 05:29:21;;;;;;;3.20;0.88;;;23.30;31.50;;;;;;4360376;32;20526;-37
2021/06/03 05:31:47;;;;;;;5.05;0.73;;;23.50;30.80;;;;;;4359729;32;20549;-37
2021/06/03 05:34:14;;;;;;;3.03;0.90;;;23.70;30.40;;;;;;4360703;32;20502;-37
2021/06/03 05:36:41;;;;;;;2.85;0.70;;;23.90;30.00;;;;;;4346838;32;20057;-38
2021/06/03 05:39:08;;;;;;;2.67;0.70;;;24.00;29.90;;;;;;4346434;32;20514;-38
2021/06/03 05:41:37;;;;;;;4.30;0.77;;;24.10;29.80;;;;;;4360292;32;20093;-37
2021/06/03 05:44:08;;;;;;;5.45;0.90;;;24.20;29.40;;;;;;4360001;32;20054;-37
2021/06/03 05:46:35;;;;;;;4.45;0.70;;;24.30;29.30;;;;;;4360265;32;20083;-37
2021/06/03 05:49:03;;;;;;;8.07;0.77;;;24.30;29.40;;;;;;4360365;32;20089;-37
2021/06/03 05:51:30;;;;;;;8.35;1.20;;;24.40;29.20;;;;;;4360076;32;20091;-37
2021/06/03 05:53:56;;;;;;;7.82;0.88;;;24.40;29.20;;;;;;4360083;32;20137;-36
2021/06/03 05:56:24;;;;;;;5.55;0.80;;;24.30;29.00;;;;;;4359756;32;20581;-37
2021/06/03 05:58:52;;;;;;;6.05;1.15;;;24.50;29.10;;;;;;4359766;32;20078;-36
2021/06/03 06:01:20;;;;;;;3.35;0.90;;;24.70;28.90;;;;;;4359845;32;20059;-37
2021/06/03 06:03:58;;;;;;;13.32;1.67;;;24.90;28.50;;;;;;4359773;32;20138;-40
2021/06/03 06:06:25;;;;;;;5.75;1.33;;;24.70;28.00;;;;;;4359636;32;20066;-39
2021/06/03 06:08:56;;;;;;;6.90;0.90;;;24.60;28.10;;;;;;4359774;32;20151;-38
2021/06/03 06:11:24;;;;;;;5.15;1.02;;;24.40;28.20;;;;;;4359951;32;20062;-38
2021/06/03 06:13:51;;;;;;;2.70;0.90;;;24.40;28.30;;;;;;4359123;32;20071;-38
2021/06/03 06:16:17;;;;;;;5.87;0.90;;;24.50;28.40;;;;;;4344987;32;20162;-39
2021/06/03 06:18:44;;;;;;;7.82;0.98;;;24.60;28.20;;;;;;4359953;32;20085;-38
2021/06/03 06:21:11;;;;;;;4.85;0.80;;;24.70;28.30;;;;;;4359402;32;20074;-36
2021/06/03 06:23:39;;;;;;;4.53;0.85;;;24.80;28.40;;;;;;4353519;32;20099;-38
2021/06/03 06:26:06;;;;;;;9.15;1.05;;;24.90;28.30;;;;;;4344485;32;20148;-38
2021/06/03 06:28:33;;;;;;;5.35;0.90;;;25.00;28.10;;;;;;4344527;33;20130;-38
2021/06/03 06:31:00;;;;;;;4.22;0.70;;;24.90;27.80;;;;;;4330890;33;20224;-38
2021/06/03 06:33:26;;;;;;;13.15;1.92;;;24.90;28.00;;;;;;4331160;33;20117;-37
2021/06/03 06:35:53;;;;;;;6.85;1.15;;;24.80;27.60;;;;;;4344730;32;20069;-38
2021/06/03 06:38:22;;;;;;;2.12;0.80;;;24.80;27.70;;;;;;4344430;33;20529;-38
2021/06/03 06:40:49;;;;;;;3.20;0.70;;;24.90;27.90;;;;;;4344790;33;20051;-38
2021/06/03 06:43:16;;;;;;;0.62;0.40;;;25.00;27.90;;;;;;4344975;32;20070;-38
2021/06/03 06:45:43;;;;;;;4.00;0.70;;;25.30;27.90;;;;;;4344613;32;20066;-37
2021/06/03 06:48:11;;;;;;;0.60;0.40;;;25.40;27.40;;;;;;4344479;32;20072;-38
2021/06/03 06:50:38;;;;;;;6.60;1.27;;;25.60;27.60;;;;;;4344464;32;20085;-38
2021/06/03 06:53:05;;;;;;;5.25;1.00;;;25.30;26.70;;;;;;4344329;32;20183;-36
2021/06/03 06:55:32;;;;;;;8.10;0.90;;;25.20;26.90;;;;;;4344733;33;20074;-37
2021/06/03 06:57:59;;;;;;;6.45;0.50;;;25.00;26.90;;;;;;4344436;32;20051;-38
2021/06/03 07:00:29;;;;;;;5.85;0.80;;;25.10;27.20;;;;;;4330635;33;20067;-38
2021/06/03 07:02:55;;;;;;;1.15;0.65;;;25.20;27.10;;;;;;4330161;33;20093;-38
2021/06/03 07:05:22;;;;;;;4.10;0.40;;;25.20;27.10;;;;;;4343649;32;20074;-38
2021/06/03 07:07:49;;;;;;;2.97;0.50;;;25.30;27.40;;;;;;4344271;32;20522;-37
2021/06/03 07:10:15;;;;;;;0.88;0.47;;;25.40;27.40;;;;;;4330522;33;20500;-36
2021/06/03 07:12:42;;;;;;;2.00;0.47;;;25.40;27.30;;;;;;4343711;32;20079;-38
2021/06/03 07:15:11;;;;;;;1.33;0.40;;;25.40;27.60;;;;;;4344136;33;20073;-37
2021/06/03 07:17:38;;;;;;;3.95;0.70;;;25.40;27.00;;;;;;4344242;32;20094;-38
2021/06/03 07:20:12;;;;;;;5.65;0.73;;;25.50;27.00;;;;;;4329996;33;20782;-37
2021/06/03 07:22:39;;;;;;;4.97;1.12;;;25.40;26.70;;;;;;4344197;32;20079;-38
2021/06/03 07:25:07;;;;;;;1.77;0.43;;;25.10;26.70;;;;;;4344638;32;20105;-37
2021/06/03 07:27:38;;;;;;;1.87;0.80;;;25.10;26.90;;;;;;4358924;32;20061;-37
2021/06/03 07:30:06;;;;;;;5.03;0.60;;;25.10;26.90;;;;;;4358619;32;20546;-38
2021/06/03 07:32:34;;;;;;;0.40;0.30;;;25.20;27.00;;;;;;4358731;32;20081;-36
2021/06/03 07:35:00;;;;;;;1.33;0.60;;;25.30;26.90;;;;;;4358651;32;20127;-38
2021/06/03 07:37:28;;;;;;;1.48;1.00;;;25.30;26.60;;;;;;4358092;32;20157;-38
2021/06/03 07:39:55;;;;;;;4.32;0.62;;;25.20;26.60;;;;;;4344646;32;20066;-38
2021/06/03 07:42:22;;;;;;;3.40;0.62;;;25.30;26.60;;;;;;4358852;32;20079;-39
2021/06/03 07:44:48;;;;;;;3.35;0.60;;;25.30;26.40;;;;;;4326001;33;20273;-37
2021/06/03 07:47:16;;;;;;;1.92;0.50;;;25.40;26.50;;;;;;4326132;33;20075;-38
2021/06/03 07:49:43;;;;;;;2.15;0.70;;;25.40;26.70;;;;;;4326104;33;20078;-38
2021/06/03 07:52:09;;;;;;;2.40;0.70;;;25.40;26.60;;;;;;4326379;33;20145;-38
2021/06/03 07:54:36;;;;;;;2.33;0.60;;;25.40;26.50;;;;;;4325910;33;20070;-38
2021/06/03 07:57:03;;;;;;;1.42;0.57;;;25.30;26.60;;;;;;4326052;33;20591;-37
2021/06/03 07:59:29;;;;;;;4.20;0.40;;;25.40;26.80;;;;;;4325878;33;20158;-37
2021/06/03 08:01:56;;;;;;;3.42;0.68;;;25.60;26.80;;;;;;4326013;33;20102;-36
2021/06/03 08:04:22;;;;;;;11.52;1.45;;;25.60;26.40;;;;;;4313750;33;20085;-39
2021/06/03 08:06:49;;;;;;;3.25;0.77;;;25.50;26.50;;;;;;4326202;33;20145;-36
2021/06/03 08:09:16;;;;;;;1.00;0.50;;;25.50;26.40;;;;;;4325616;33;20160;-38
2021/06/03 08:11:44;;;;;;;0.70;0.43;;;25.60;26.60;;;;;;4326006;33;20150;-39
2021/06/03 08:14:12;;;;;;;4.37;0.80;;;25.60;26.50;;;;;;4314102;33;20052;-39
2021/06/03 08:16:39;;;;;;;0.50;0.30;;;25.40;26.50;;;;;;4325886;33;20535;-37
2021/06/03 08:19:06;;;;;;;1.35;0.37;;;25.40;26.60;;;;;;4325855;33;20102;-38
2021/06/03 08:21:34;;;;;;;0.80;0.40;;;25.50;26.70;;;;;;4332053;32;20086;-38
2021/06/03 08:24:01;;;;;;;0.40;0.30;;;25.60;26.70;;;;;;4349379;32;20532;-37
2021/06/03 08:26:28;;;;;;;0.40;0.40;;;25.80;26.70;;;;;;4342934;33;20058;-38
2021/06/03 08:28:58;;;;;;;2.15;0.50;;;25.80;26.60;;;;;;4342647;33;20132;-38
2021/06/03 08:31:25;;;;;;;1.77;0.55;;;25.90;26.60;;;;;;4342866;33;20148;-39
2021/06/03 08:33:52;;;;;;;2.53;0.50;;;26.00;26.60;;;;;;4342623;33;20166;-38
2021/06/03 08:36:18;;;;;;;0.70;0.35;;;26.00;26.50;;;;;;4342956;33;20106;-38
2021/06/03 08:38:45;;;;;;;5.47;0.80;;;26.10;26.30;;;;;;4342759;33;20514;-37
2021/06/03 08:41:11;;;;;;;0.95;0.20;;;26.00;26.90;;;;;;4342936;32;20059;-38
2021/06/03 08:43:38;;;;;;;1.30;0.60;;;26.20;26.60;;;;;;4328872;33;20149;-37
2021/06/03 08:46:04;;;;;;;4.18;0.40;;;26.30;26.30;;;;;;4342550;32;20161;-38
2021/06/03 08:48:31;;;;;;;2.22;0.70;;;26.10;26.50;;;;;;4329238;33;20117;-38
2021/06/03 08:51:00;;;;;;;1.30;0.47;;;26.10;26.50;;;;;;4342915;32;20083;-38
2021/06/03 08:53:28;;;;;;;5.35;0.52;;;26.10;26.60;;;;;;4342806;32;20085;-39
2021/06/03 08:58:39;;;;;;;4.47;0.60;;;26.30;26.50;;;;;;4342844;32;20055;-38
2021/06/03 09:01:06;;;;;;;1.67;0.60;;;26.30;26.50;;;;;;4343176;32;20075;-39
2021/06/03 09:03:33;;;;;;;2.62;0.60;;;26.50;27.10;;;;;;4342957;33;20511;-39
2021/06/03 09:06:00;;;;;;;1.33;0.90;;;26.50;26.50;;;;;;4342575;32;20085;-39
2021/06/03 09:08:35;;;;;;;1.80;0.47;;;26.50;26.70;;;;;;4342787;33;20079;-38
2021/06/03 09:11:10;;;;;;;3.62;0.77;;;26.50;26.70;;;;;;4329065;33;20162;-37
2021/06/03 09:13:40;;;;;;;2.33;0.50;;;26.50;26.60;;;;;;4342647;32;20112;-38
2021/06/03 09:16:09;;;;;;;6.95;0.75;;;26.50;26.60;;;;;;4342659;33;20105;-39
2021/06/03 09:18:54;;;;;;;0.40;0.28;;;26.50;26.80;;;;;;4342631;32;20066;-37
2021/06/03 09:21:28;;;;;;;2.78;0.70;;;26.60;26.70;;;;;;4342701;32;20094;-38
2021/06/03 09:24:01;;;;;;;;;;;26.60;26.50;;;;;;4350903;32;20536;-38
2021/06/03 09:26:38;;;;;;;0.60;0.43;;;26.90;26.90;;;;;;4357620;32;20435;-38
2021/06/03 09:29:05;;;;;;;0.93;0.30;;;27.00;26.70;;;;;;4343664;32;20158;-39
2021/06/03 09:31:35;;;;;;;4.45;0.50;;;27.10;26.60;;;;;;4331384;32;20187;-38
2021/06/03 09:34:16;;;;;;;2.67;0.35;;;27.30;26.40;;;;;;4357433;32;20534;-39
2021/06/03 09:36:54;;;;;;;1.10;0.60;;;27.40;26.40;;;;;;4344910;32;20066;-38
2021/06/03 09:39:28;;;;;;;5.37;0.40;;;27.50;26.40;;;;;;4357409;32;20454;-38
2021/06/03 09:41:59;;;;;;;1.67;0.80;;;27.40;26.20;;;;;;4357591;32;20078;-37
2021/06/03 09:44:35;;;;;;;5.50;0.50;;;27.50;26.20;;;;;;4325422;33;20110;-38
2021/06/03 09:47:03;;;;;;;1.33;0.62;;;27.20;26.00;;;;;;4325390;33;20094;-39
2021/06/03 09:49:35;;;;;;;4.07;0.50;;;27.10;26.20;;;;;;4325349;33;20150;-39
2021/06/03 09:52:11;;;;;;;3.87;0.70;;;27.20;26.10;;;;;;4327918;33;20102;-37
2021/06/03 09:54:38;;;;;;;4.05;0.50;;;27.20;26.00;;;;;;4328039;33;20077;-38
2021/06/03 09:57:10;;;;;;;3.08;0.98;;;27.10;26.20;;;;;;4327879;33;20081;-38
2021/06/03 09:59:44;;;;;;;3.42;0.70;;;27.20;26.00;;;;;;4327993;33;20055;-39
2021/06/03 10:02:15;;;;;;;7.30;0.80;;;27.20;26.30;;;;;;4327830;33;20670;-40
2021/06/03 10:04:52;;;;;;;6.05;0.65;;;27.10;26.00;;;;;;4316347;33;20519;-38
2021/06/03 10:07:19;;;;;;;6.85;0.65;;;27.20;26.00;;;;;;4327738;33;20063;-39
2021/06/03 10:09:58;;;;;;;9.35;0.82;;;27.00;26.00;;;;;;4327726;33;20062;-37
2021/06/03 10:12:25;;;;;;;1.50;0.70;;;27.00;26.40;;;;;;4315970;33;20083;-38
2021/06/03 10:15:21;;;;;;;8.48;0.60;;;26.80;26.30;;;;;;4336282;32;20066;-38
2021/06/03 10:17:52;;;;;;;3.97;0.80;;;26.80;26.70;;;;;;4349905;32;20082;-39
2021/06/03 10:20:30;;;;;;;3.72;0.50;;;26.80;26.40;;;;;;4345798;32;20522;-38
2021/06/03 10:22:57;;;;;;;3.10;0.77;;;26.80;26.70;;;;;;4358380;32;20117;-40
2021/06/03 10:25:30;;;;;;;4.50;0.60;;;26.80;26.50;;;;;;4344802;32;20167;-39
2021/06/03 10:28:02;;;;;;;5.97;0.85;;;26.70;26.60;;;;;;4344963;33;20079;-39
2021/06/03 10:30:53;;;;;;;5.35;0.40;;;26.70;26.40;;;;;;4345075;32;20069;-39
2021/06/03 10:33:22;;;;;;;1.98;0.60;;;26.80;26.70;;;;;;4333356;33;20146;-38
2021/06/03 10:35:53;;;;;;;3.45;0.50;;;26.80;26.50;;;;;;4344433;32;20062;-38
2021/06/03 10:38:20;;;;;;;5.35;1.80;;;26.80;26.40;;;;;;4330995;32;20600;-39
2021/06/03 10:40:50;;;;;;;3.08;0.70;;;26.80;26.50;;;;;;4344746;32;20067;-39
2021/06/03 10:43:17;;;;;;;1.40;0.47;;;26.80;26.40;;;;;;4344489;33;20074;-39
2021/06/03 10:45:45;;;;;;;2.35;0.60;;;26.90;26.50;;;;;;4330761;33;20059;-39
2021/06/03 10:48:11;;;;;;;0.30;0.22;;;27.00;26.50;;;;;;4343949;32;20098;-39
2021/06/03 10:50:42;;;;;;;4.28;0.50;;;27.10;26.60;;;;;;4344218;32;20078;-38
2021/06/03 10:53:14;;;;;;;0.98;0.57;;;27.40;26.20;;;;;;4300018;33;20595;-39
2021/06/03 10:56:09;;;;;;;1.12;0.70;;;27.50;26.00;;;;;;4312051;33;20071;-40
2021/06/03 10:58:37;;;;;;;3.78;0.70;;;27.60;25.70;;;;;;4302708;33;20074;-37
2021/06/03 11:01:12;;;;;;;2.40;0.50;;;27.50;25.70;;;;;;4296840;33;20074;-38
2021/06/03 11:03:40;;;;;;;3.33;0.40;;;27.50;26.00;;;;;;4297383;33;20082;-39
2021/06/03 11:06:12;;;;;;;4.93;0.80;;;27.60;25.90;;;;;;4297536;33;20076;-38
2021/06/03 11:08:59;;;;;;;4.90;0.60;;;27.70;25.70;;;;;;4297020;33;20086;-38
2021/06/03 11:11:35;;;;;;;3.97;0.40;;;27.90;25.60;;;;;;4297707;33;20073;-39
2021/06/03 11:14:16;;;;;;;2.08;0.68;;;28.10;25.80;;;;;;4297768;33;20674;-38
2021/06/03 11:16:54;;;;;;;2.62;0.28;;;28.20;25.30;;;;;;4297485;33;20152;-39
2021/06/03 11:19:30;;;;;;;5.55;0.40;;;28.20;25.40;;;;;;4297545;33;20146;-39
2021/06/03 11:22:07;;;;;;;4.12;0.70;;;28.40;25.50;;;;;;4285229;33;20166;-38
2021/06/03 11:24:34;;;;;;;1.45;0.30;;;28.40;25.20;;;;;;4318735;33;20059;-38
2021/06/03 11:27:04;;;;;;;0.62;0.30;;;28.40;25.40;;;;;;4326734;33;20079;-38
2021/06/03 11:29:32;;;;;;;2.10;0.43;;;28.50;25.30;;;;;;4326823;33;20577;-39
2021/06/03 11:32:04;;;;;;;0.95;0.30;;;28.50;25.30;;;;;;4332332;33;20154;-38
2021/06/03 11:34:46;;;;;;;3.67;0.40;;;28.70;26.00;;;;;;4341362;33;20063;-39
2021/06/03 11:37:17;;;;;;;2.25;0.80;;;28.50;25.10;;;;;;4340658;33;20082;-40
2021/06/03 11:39:47;;;;;;;9.55;0.60;;;28.40;25.20;;;;;;4329077;33;20156;-40
2021/06/03 11:42:31;;;;;;;3.87;0.50;;;28.30;25.20;;;;;;4341081;33;20059;-39
2021/06/03 11:45:30;;;;;;;4.05;0.40;;;28.20;25.30;;;;;;4340743;33;20091;-39
2021/06/03 11:48:02;;;;;;;1.85;0.55;;;28.20;25.50;;;;;;4340957;33;20082;-38
2021/06/03 11:50:34;;;;;;;13.13;4.30;;;28.10;25.40;;;;;;4341108;33;20541;-39
2021/06/03 11:53:02;;;;;;;3.40;0.75;;;28.20;25.60;;;;;;4341245;33;20094;-39
2021/06/03 11:55:42;;;;;;;4.72;0.68;;;28.10;25.40;;;;;;4340845;33;20055;-39
2021/06/03 11:58:24;;;;;;;23.98;1.15;;;27.90;25.40;;;;;;4340887;33;20586;-39
2021/06/03 12:01:14;;;;;;;6.03;0.95;;;28.00;25.50;;;;;;4340666;33;20095;-38
2021/06/03 12:03:48;;;;;;;2.03;0.57;;;28.00;25.40;;;;;;4340725;33;20155;-39
2021/06/03 12:06:23;;;;;;;5.03;0.70;;;28.20;25.70;;;;;;4340777;33;20081;-39
2021/06/03 12:08:57;;;;;;;2.90;0.70;;;28.20;25.30;;;;;;4344601;32;20074;-40
2021/06/03 12:11:44;;;;;;;9.23;0.60;;;28.30;25.50;;;;;;4357701;32;20162;-39
2021/06/03 12:14:19;;;;;;;5.47;1.00;;;28.20;25.40;;;;;;4357191;32;20078;-39
2021/06/03 12:16:53;;;;;;;5.68;0.68;;;28.00;25.30;;;;;;4357987;32;20144;-39
2021/06/03 12:19:22;;;;;;;;;;;27.90;25.60;;;;;;4345381;32;20583;-39
2021/06/03 12:22:03;;;;;;;1.95;0.60;;;27.90;25.50;;;;;;4344302;32;19961;-37
2021/06/03 12:24:39;;;;;;;4.47;0.40;;;28.00;25.70;;;;;;4346589;32;20077;-39
2021/06/03 12:27:17;;;;;;;2.60;0.30;;;28.20;25.80;;;;;;4343070;32;20542;-39
2021/06/03 12:29:43;;;;;;;0.80;0.50;;;28.40;25.60;;;;;;4299635;33;20091;-39
2021/06/03 12:32:11;;;;;;;3.37;0.50;;;28.50;25.50;;;;;;4311174;33;20197;-39
2021/06/03 12:34:37;;;;;;;4.05;0.90;;;28.50;25.50;;;;;;4299143;33;20097;-40
2021/06/03 12:37:31;;;;;;;2.92;0.52;;;28.50;25.40;;;;;;4310885;33;20072;-39
2021/06/03 12:39:58;;;;;;;3.17;0.50;;;28.50;25.60;;;;;;4298890;33;20558;-37
2021/06/03 12:42:29;;;;;;;3.75;0.60;;;28.60;25.70;;;;;;4310433;33;20163;-38
2021/06/03 12:45:08;;;;;;;8.35;0.70;;;28.70;25.50;;;;;;4295639;33;20203;-39
2021/06/03 12:47:35;;;;;;;3.35;0.50;;;28.60;25.10;;;;;;4296629;33;20083;-39
2021/06/03 12:50:15;;;;;;;1.45;0.62;;;28.50;25.80;;;;;;4284206;33;20615;-39
2021/06/03 12:52:44;;;;;;;3.70;0.70;;;28.60;25.30;;;;;;4296466;33;20064;-38
2021/06/03 12:55:11;;;;;;;4.78;0.90;;;28.50;25.30;;;;;;4296646;33;20145;-39
2021/06/03 12:57:38;;;;;;;4.35;0.80;;;28.30;25.00;;;;;;4296185;33;20483;-39
2021/06/03 13:00:32;;;;;;;2.80;0.60;;;28.40;25.40;;;;;;4296054;33;20555;-40
2021/06/03 13:03:12;;;;;;;2.78;0.50;;;28.30;25.30;;;;;;4295991;33;20579;-39
2021/06/03 13:05:41;;;;;;;2.20;0.70;;;28.50;25.40;;;;;;4296508;33;20219;-38